Time,TemperatureF,DewpointF,PressureIn,WindDirection,WindDirectionDegrees,WindSpeedMPH,WindSpeedGustMPH,Humidity,HourlyPrecipIn,Conditions,Clouds,dailyrainin,SoftwareType,DateUTC
2013-04-24 00:01:00,38.2,37.4,30.26,North,0,0.0,-999.0,96,0.00,,,-99.99,,2013-04-24 08:01:00,
2013-04-24 00:06:00,38.1,37.2,30.26,North,0,0.0,-999.0,96,0.00,,,-99.99,,2013-04-24 08:06:00,
2013-04-24 00:11:00,38.1,37.3,30.26,North,0,0.0,-999.0,96,0.00,,,-99.99,,2013-04-24 08:11:00,
2013-04-24 00:16:00,38.1,37.3,30.26,North,0,0.0,-999.0,96,0.00,,,-99.99,,2013-04-24 08:16:00,
2013-04-24 00:21:00,38.1,37.2,30.26,North,0,0.0,-999.0,96,0.00,,,-99.99,,2013-04-24 08:21:00,
2013-04-24 00:26:00,38.0,37.1,30.26,North,0,0.0,-999.0,96,0.00,,,-99.99,,2013-04-24 08:26:00,
2013-04-24 00:31:00,37.9,37.0,30.26,North,0,0.0,-999.0,96,0.00,,,-99.99,,2013-04-24 08:31:00,
2013-04-24 00:36:00,38.0,37.2,30.26,North,0,0.0,-999.0,96,0.00,,,-99.99,,2013-04-24 08:36:00,
2013-04-24 00:41:00,37.9,37.0,30.26,North,0,0.0,-999.0,96,0.00,,,-99.99,,2013-04-24 08:41:00,
2013-04-24 00:46:00,37.8,37.0,30.26,North,0,0.0,-999.0,96,0.00,,,-99.99,,2013-04-24 08:46:00,
2013-04-24 00:51:00,38.1,37.2,30.26,North,0,0.0,-999.0,96,0.00,,,-99.99,,2013-04-24 08:51:00,
2013-04-24 00:56:00,37.8,36.9,30.26,North,0,0.0,-999.0,96,0.00,,,-99.99,,2013-04-24 08:56:00,
2013-04-24 01:01:00,37.8,36.9,30.25,North,0,0.0,-999.0,96,0.00,,,-99.99,,2013-04-24 09:01:00,
2013-04-24 01:06:00,37.8,36.9,30.25,North,0,0.0,-999.0,96,0.00,,,-99.99,,2013-04-24 09:06:00,
2013-04-24 01:11:00,37.8,36.9,30.25,North,0,0.0,-999.0,96,0.00,,,-99.99,,2013-04-24 09:11:00,
2013-04-24 01:16:00,37.8,36.9,30.25,North,0,0.0,-999.0,96,0.00,,,-99.99,,2013-04-24 09:16:00,
2013-04-24 01:21:00,37.7,36.9,30.25,North,0,0.0,-999.0,96,0.00,,,-99.99,,2013-04-24 09:21:00,
2013-04-24 01:26:00,37.8,36.9,30.25,North,0,0.0,-999.0,96,0.00,,,-99.99,,2013-04-24 09:26:00,
2013-04-24 01:31:00,37.8,37.0,30.25,North,0,0.0,-999.0,96,0.00,,,-99.99,,2013-04-24 09:31:00,
2013-04-24 01:36:00,37.6,36.8,30.25,North,0,0.0,-999.0,96,0.00,,,-99.99,,2013-04-24 09:36:00,
2013-04-24 01:41:00,37.6,36.8,30.25,North,0,0.0,-999.0,96,0.00,,,-99.99,,2013-04-24 09:41:00,
2013-04-24 01:46:00,37.5,36.7,30.25,North,0,0.0,-999.0,96,0.00,,,-99.99,,2013-04-24 09:46:00,
2013-04-24 01:51:00,37.6,36.8,30.25,North,0,0.0,-999.0,96,0.00,,,-99.99,,2013-04-24 09:51:00,
2013-04-24 01:56:00,37.6,36.7,30.25,North,0,0.0,-999.0,96,0.00,,,-99.99,,2013-04-24 09:56:00,
2013-04-24 02:01:00,37.6,36.7,30.25,North,0,0.0,-999.0,96,0.00,,,-99.99,,2013-04-24 10:01:00,
2013-04-24 02:06:00,37.5,36.7,30.25,North,0,0.0,-999.0,96,0.00,,,-99.99,,2013-04-24 10:06:00,
2013-04-24 02:11:00,37.5,36.7,30.25,North,0,0.0,-999.0,96,0.00,,,-99.99,,2013-04-24 10:11:00,
2013-04-24 02:16:00,37.6,36.8,30.25,North,0,0.0,-999.0,96,0.00,,,-99.99,,2013-04-24 10:16:00,
2013-04-24 02:21:00,37.6,36.8,30.25,North,0,0.0,-999.0,96,0.00,,,-99.99,,2013-04-24 10:21:00,
2013-04-24 02:26:00,37.6,36.7,30.25,North,0,0.0,-999.0,96,0.00,,,-99.99,,2013-04-24 10:26:00,
2013-04-24 02:31:00,37.6,36.8,30.25,North,0,0.0,-999.0,96,0.00,,,-99.99,,2013-04-24 10:31:00,
2013-04-24 02:36:00,37.5,36.7,30.25,North,0,0.0,-999.0,96,0.00,,,-99.99,,2013-04-24 10:36:00,
2013-04-24 02:41:00,37.5,36.7,30.25,North,0,0.0,-999.0,96,0.00,,,-99.99,,2013-04-24 10:41:00,
2013-04-24 02:46:00,37.5,36.7,30.25,North,0,0.0,-999.0,96,0.00,,,-99.99,,2013-04-24 10:46:00,
2013-04-24 02:51:00,37.5,36.6,30.25,North,0,0.0,-999.0,96,0.00,,,-99.99,,2013-04-24 10:51:00,
2013-04-24 02:56:00,37.2,36.3,30.25,North,0,0.0,-999.0,96,0.00,,,-99.99,,2013-04-24 10:56:00,
2013-04-24 03:01:00,37.2,36.4,30.24,North,0,0.0,-999.0,96,0.00,,,-99.99,,2013-04-24 11:01:00,
2013-04-24 03:06:00,37.0,36.2,30.24,North,0,0.0,-999.0,96,0.00,,,-99.99,,2013-04-24 11:06:00,
2013-04-24 03:11:00,36.8,36.0,30.24,North,0,0.0,-999.0,96,0.00,,,-99.99,,2013-04-24 11:11:00,
2013-04-24 03:16:00,36.8,35.9,30.24,North,0,0.0,-999.0,96,0.00,,,-99.99,,2013-04-24 11:16:00,
2013-04-24 03:21:00,36.8,36.0,30.24,North,0,0.0,-999.0,96,0.00,,,-99.99,,2013-04-24 11:21:00,
2013-04-24 03:26:00,36.8,36.0,30.24,North,0,0.0,-999.0,96,0.00,,,-99.99,,2013-04-24 11:26:00,
2013-04-24 03:31:00,36.8,36.0,30.24,North,0,0.0,-999.0,96,0.00,,,-99.99,,2013-04-24 11:31:00,
2013-04-24 03:36:00,36.6,35.8,30.24,North,0,0.0,-999.0,96,0.00,,,-99.99,,2013-04-24 11:36:00,
2013-04-24 03:41:00,36.7,35.8,30.24,North,0,0.0,-999.0,96,0.00,,,-99.99,,2013-04-24 11:41:00,
2013-04-24 03:46:00,36.7,35.8,30.24,North,0,0.0,-999.0,96,0.00,,,-99.99,,2013-04-24 11:46:00,
2013-04-24 03:51:00,36.7,35.8,30.24,North,0,0.0,-999.0,96,0.00,,,-99.99,,2013-04-24 11:51:00,
2013-04-24 03:56:00,36.6,35.8,30.24,North,0,0.0,-999.0,96,0.00,,,-99.99,,2013-04-24 11:56:00,
2013-04-24 04:01:00,36.5,35.7,30.22,North,0,0.0,-999.0,96,0.00,,,-99.99,,2013-04-24 12:01:00,
2013-04-24 04:06:00,36.5,35.7,30.22,North,0,0.0,-999.0,96,0.00,,,-99.99,,2013-04-24 12:06:00,
2013-04-24 04:11:00,36.3,35.5,30.22,North,0,0.0,-999.0,96,0.00,,,-99.99,,2013-04-24 12:11:00,
2013-04-24 04:16:00,36.3,35.5,30.22,North,0,0.0,-999.0,96,0.00,,,-99.99,,2013-04-24 12:16:00,
2013-04-24 04:21:00,36.3,35.5,30.22,North,0,0.0,-999.0,96,0.00,,,-99.99,,2013-04-24 12:21:00,
2013-04-24 04:26:00,35.9,35.1,30.22,North,0,0.0,-999.0,96,0.00,,,-99.99,,2013-04-24 12:26:00,
2013-04-24 04:31:00,35.5,34.7,30.22,North,0,0.0,-999.0,96,0.00,,,-99.99,,2013-04-24 12:31:00,
2013-04-24 04:36:00,35.3,34.5,30.22,North,0,0.0,-999.0,96,0.00,,,-99.99,,2013-04-24 12:36:00,
2013-04-24 04:41:00,35.1,34.4,30.22,North,0,0.0,-999.0,97,0.00,,,-99.99,,2013-04-24 12:41:00,
2013-04-24 04:46:00,35.1,34.3,30.22,North,0,0.0,-999.0,97,0.00,,,-99.99,,2013-04-24 12:46:00,
2013-04-24 04:51:00,35.0,34.3,30.22,North,0,0.0,-999.0,97,0.00,,,-99.99,,2013-04-24 12:51:00,
2013-04-24 04:56:00,35.0,34.3,30.22,North,0,0.0,-999.0,97,0.00,,,-99.99,,2013-04-24 12:56:00,
2013-04-24 05:01:00,34.9,34.2,30.21,North,0,0.0,-999.0,97,0.00,,,-99.99,,2013-04-24 13:01:00,
2013-04-24 05:06:00,34.6,33.8,30.21,North,0,0.0,-999.0,97,0.00,,,-99.99,,2013-04-24 13:06:00,
2013-04-24 05:11:00,34.5,33.8,30.21,North,0,0.0,-999.0,97,0.00,,,-99.99,,2013-04-24 13:11:00,
2013-04-24 05:16:00,34.5,33.8,30.21,North,0,0.0,-999.0,97,0.00,,,-99.99,,2013-04-24 13:16:00,
2013-04-24 05:21:00,34.4,33.7,30.21,North,0,0.0,-999.0,97,0.00,,,-99.99,,2013-04-24 13:21:00,
2013-04-24 05:26:00,34.3,33.7,30.21,North,0,0.0,-999.0,97,0.00,,,-99.99,,2013-04-24 13:26:00,
2013-04-24 05:31:00,34.3,33.7,30.21,North,0,0.0,-999.0,97,0.00,,,-99.99,,2013-04-24 13:31:00,
2013-04-24 05:36:00,34.3,33.6,30.21,North,0,0.0,-999.0,97,0.00,,,-99.99,,2013-04-24 13:36:00,
2013-04-24 05:41:00,34.3,33.7,30.21,North,0,0.0,-999.0,97,0.00,,,-99.99,,2013-04-24 13:41:00,
2013-04-24 05:46:00,34.2,33.5,30.21,North,0,0.0,-999.0,97,0.00,,,-99.99,,2013-04-24 13:46:00,
2013-04-24 05:51:00,34.1,33.4,30.21,North,0,0.0,-999.0,97,0.00,,,-99.99,,2013-04-24 13:51:00,
2013-04-24 05:56:00,33.8,33.1,30.21,North,0,0.0,-999.0,97,0.00,,,-99.99,,2013-04-24 13:56:00,
2013-04-24 06:01:00,33.5,32.9,30.21,North,0,0.0,-999.0,97,0.00,,,-99.99,,2013-04-24 14:01:00,
2013-04-24 06:06:00,33.6,33.0,30.21,North,0,0.0,-999.0,97,0.00,,,-99.99,,2013-04-24 14:06:00,
2013-04-24 06:11:00,33.5,32.9,30.21,North,0,0.0,-999.0,97,0.00,,,-99.99,,2013-04-24 14:11:00,
2013-04-24 06:16:00,33.7,33.0,30.21,North,0,0.0,-999.0,97,0.00,,,-99.99,,2013-04-24 14:16:00,
2013-04-24 06:21:00,33.5,32.9,30.21,North,0,0.0,-999.0,97,0.00,,,-99.99,,2013-04-24 14:21:00,
2013-04-24 06:26:00,33.5,32.9,30.21,North,0,0.0,-999.0,97,0.00,,,-99.99,,2013-04-24 14:26:00,
2013-04-24 06:31:00,33.5,32.9,30.21,North,0,0.0,-999.0,97,0.00,,,-99.99,,2013-04-24 14:31:00,
2013-04-24 06:36:00,33.5,32.8,30.21,North,0,0.0,-999.0,97,0.00,,,-99.99,,2013-04-24 14:36:00,
2013-04-24 06:41:00,33.5,32.9,30.21,North,0,0.0,-999.0,97,0.00,,,-99.99,,2013-04-24 14:41:00,
2013-04-24 06:46:00,33.7,33.0,30.21,North,0,0.0,-999.0,97,0.00,,,-99.99,,2013-04-24 14:46:00,
2013-04-24 06:51:00,33.5,32.9,30.21,North,0,0.0,-999.0,97,0.00,,,-99.99,,2013-04-24 14:51:00,
2013-04-24 06:56:00,33.8,33.2,30.21,North,0,0.0,-999.0,97,0.00,,,-99.99,,2013-04-24 14:56:00,
2013-04-24 07:01:00,34.0,33.4,30.18,North,0,0.0,-999.0,97,0.00,,,-99.99,,2013-04-24 15:01:00,
2013-04-24 07:10:00,33.9,33.2,30.18,North,0,0.0,-999.0,97,0.00,,,-99.99,,2013-04-24 15:10:00,
2013-04-24 07:15:00,34.1,33.5,30.18,North,0,0.0,-999.0,97,0.00,,,-99.99,,2013-04-24 15:15:00,
2013-04-24 07:20:00,34.1,33.5,30.18,North,0,0.0,-999.0,97,0.00,,,-99.99,,2013-04-24 15:20:00,
2013-04-24 07:25:00,34.4,33.8,30.18,North,0,0.0,-999.0,97,0.00,,,-99.99,,2013-04-24 15:25:00,
2013-04-24 07:30:00,34.6,34.0,30.18,North,0,0.0,-999.0,97,0.00,,,-99.99,,2013-04-24 15:30:00,
2013-04-24 07:35:00,35.2,34.7,30.18,North,0,0.0,-999.0,97,0.00,,,-99.99,,2013-04-24 15:35:00,
2013-04-24 07:40:00,35.5,34.9,30.18,North,0,0.0,-999.0,97,0.00,,,-99.99,,2013-04-24 15:40:00,
2013-04-24 07:45:00,36.0,35.4,30.18,North,0,0.0,-999.0,97,0.00,,,-99.99,,2013-04-24 15:45:00,
2013-04-24 07:50:00,36.3,35.5,30.18,North,0,0.0,-999.0,97,0.00,,,-99.99,,2013-04-24 15:50:00,
2013-04-24 07:55:00,36.2,35.4,30.18,North,0,0.0,-999.0,97,0.00,,,-99.99,,2013-04-24 15:55:00,
2013-04-24 08:00:00,36.2,35.5,30.17,North,0,0.0,-999.0,97,0.00,,,-99.99,,2013-04-24 16:00:00,
2013-04-24 08:05:00,36.5,35.7,30.17,North,0,0.0,-999.0,97,0.00,,,-99.99,,2013-04-24 16:05:00,
2013-04-24 08:10:00,36.8,36.1,30.17,North,0,0.0,-999.0,97,0.00,,,-99.99,,2013-04-24 16:10:00,
2013-04-24 08:15:00,36.8,36.1,30.17,North,0,0.0,-999.0,97,0.00,,,-99.99,,2013-04-24 16:15:00,
2013-04-24 08:20:00,37.2,36.5,30.17,North,0,0.0,-999.0,97,0.00,,,-99.99,,2013-04-24 16:20:00,
2013-04-24 08:25:00,37.8,37.1,30.17,North,0,0.0,-999.0,97,0.00,,,-99.99,,2013-04-24 16:25:00,
2013-04-24 08:30:00,38.1,37.5,30.17,North,0,0.0,-999.0,97,0.00,,,-99.99,,2013-04-24 16:30:00,
2013-04-24 08:35:00,38.8,38.2,30.17,North,0,0.0,-999.0,97,0.00,,,-99.99,,2013-04-24 16:35:00,
2013-04-24 08:40:00,38.9,38.2,30.17,North,0,0.0,-999.0,97,0.00,,,-99.99,,2013-04-24 16:40:00,
2013-04-24 08:47:00,39.3,38.7,30.17,North,0,0.0,-999.0,97,0.00,,,-99.99,,2013-04-24 16:47:00,
2013-04-24 08:52:00,38.9,38.1,30.17,North,0,0.0,-999.0,96,0.00,,,-99.99,,2013-04-24 16:52:00,
2013-04-24 08:57:00,39.0,38.2,30.17,North,0,0.0,-999.0,96,0.00,,,-99.99,,2013-04-24 16:57:00,
2013-04-24 09:02:00,39.2,38.4,30.16,North,0,0.0,-999.0,96,0.00,,,-99.99,,2013-04-24 17:02:00,
2013-04-24 09:07:00,39.7,38.8,30.16,North,0,0.0,-999.0,96,0.00,,,-99.99,,2013-04-24 17:07:00,
2013-04-24 09:12:00,40.3,39.5,30.16,North,0,0.0,-999.0,96,0.00,,,-99.99,,2013-04-24 17:12:00,
2013-04-24 09:19:00,40.5,39.4,30.16,North,0,0.0,-999.0,95,0.00,,,-99.99,,2013-04-24 17:19:00,
2013-04-24 09:24:00,40.7,39.3,30.16,North,0,0.0,-999.0,94,0.00,,,-99.99,,2013-04-24 17:24:00,
2013-04-24 09:29:00,41.6,39.9,30.16,North,0,0.0,-999.0,93,0.00,,,-99.99,,2013-04-24 17:29:00,
2013-04-24 09:34:00,41.8,39.3,30.16,North,0,0.0,-999.0,90,0.00,,,-99.99,,2013-04-24 17:34:00,
2013-04-24 09:39:00,41.5,38.7,30.16,North,0,0.0,-999.0,89,0.00,,,-99.99,,2013-04-24 17:39:00,
2013-04-24 09:45:00,41.4,38.5,30.16,North,0,0.0,-999.0,89,0.00,,,-99.99,,2013-04-24 17:45:00,
2013-04-24 09:50:00,41.8,38.9,30.16,North,0,0.0,-999.0,89,0.00,,,-99.99,,2013-04-24 17:50:00,
2013-04-24 09:55:00,41.4,38.5,30.16,North,0,0.0,-999.0,89,0.00,,,-99.99,,2013-04-24 17:55:00,
2013-04-24 10:00:00,41.4,38.2,30.14,North,0,0.0,-999.0,88,0.00,,,-99.99,,2013-04-24 18:00:00,
2013-04-24 10:05:00,41.2,38.1,30.14,North,0,0.0,-999.0,88,0.00,,,-99.99,,2013-04-24 18:05:00,
2013-04-24 10:10:00,41.8,38.6,30.14,North,0,0.0,-999.0,88,0.00,,,-99.99,,2013-04-24 18:10:00,
2013-04-24 10:15:00,41.4,37.9,30.14,North,0,0.0,-999.0,87,0.00,,,-99.99,,2013-04-24 18:15:00,
2013-04-24 10:20:00,41.5,38.2,30.14,North,0,0.0,-999.0,87,0.00,,,-99.99,,2013-04-24 18:20:00,
2013-04-24 10:25:00,41.4,37.9,30.14,North,0,0.0,-999.0,87,0.00,,,-99.99,,2013-04-24 18:25:00,
2013-04-24 10:30:00,41.6,38.2,30.14,North,0,0.0,-999.0,87,0.00,,,-99.99,,2013-04-24 18:30:00,
2013-04-24 10:35:00,41.6,38.0,30.14,North,0,0.0,-999.0,86,0.00,,,-99.99,,2013-04-24 18:35:00,
2013-04-24 10:40:00,41.5,38.0,30.14,North,0,0.0,-999.0,87,0.00,,,-99.99,,2013-04-24 18:40:00,
2013-04-24 10:45:00,40.9,37.4,30.14,North,0,0.0,-999.0,87,0.00,,,-99.99,,2013-04-24 18:45:00,
2013-04-24 10:50:00,41.1,37.6,30.14,North,0,0.0,-999.0,87,0.00,,,-99.99,,2013-04-24 18:50:00,
2013-04-24 10:55:00,40.5,36.9,30.14,North,0,0.0,-999.0,86,0.00,,,-99.99,,2013-04-24 18:55:00,
2013-04-24 11:00:00,40.8,38.2,30.11,North,0,0.0,-999.0,90,0.00,,,-99.99,,2013-04-24 19:00:00,
2013-04-24 11:05:00,41.7,38.8,30.11,North,0,0.0,-999.0,89,0.00,,,-99.99,,2013-04-24 19:05:00,
2013-04-24 11:10:00,42.2,39.5,30.11,North,0,0.0,-999.0,90,0.00,,,-99.99,,2013-04-24 19:10:00,
2013-04-24 11:15:00,43.3,39.9,30.11,North,0,0.0,-999.0,87,0.00,,,-99.99,,2013-04-24 19:15:00,
2013-04-24 11:20:00,44.1,39.9,30.11,North,0,0.0,-999.0,84,0.00,,,-99.99,,2013-04-24 19:20:00,
2013-04-24 11:25:00,44.9,39.9,30.11,North,0,0.0,-999.0,82,0.00,,,-99.99,,2013-04-24 19:25:00,
2013-04-24 11:30:00,45.4,39.5,30.11,North,0,0.0,-999.0,79,0.00,,,-99.99,,2013-04-24 19:30:00,
2013-04-24 11:35:00,45.0,39.8,30.11,North,0,0.0,-999.0,81,0.00,,,-99.99,,2013-04-24 19:35:00,
2013-04-24 11:40:00,45.8,41.0,30.11,North,0,0.0,-999.0,82,0.00,,,-99.99,,2013-04-24 19:40:00,
2013-04-24 11:45:00,46.0,39.2,30.11,North,0,0.0,-999.0,76,0.00,,,-99.99,,2013-04-24 19:45:00,
2013-04-24 11:50:00,45.7,40.1,30.11,North,0,0.0,-999.0,80,0.00,,,-99.99,,2013-04-24 19:50:00,
2013-04-24 11:55:00,46.1,40.1,30.11,North,0,0.0,-999.0,79,0.00,,,-99.99,,2013-04-24 19:55:00,
2013-04-24 12:00:00,46.0,40.2,30.10,North,0,0.0,-999.0,79,0.00,,,-99.99,,2013-04-24 20:00:00,
2013-04-24 12:05:00,45.9,39.8,30.10,North,0,0.0,-999.0,78,0.00,,,-99.99,,2013-04-24 20:05:00,
2013-04-24 12:10:00,45.5,39.4,30.10,North,0,0.0,-999.0,78,0.00,,,-99.99,,2013-04-24 20:10:00,
2013-04-24 12:15:00,45.7,38.9,30.10,North,0,0.0,-999.0,76,0.00,,,-99.99,,2013-04-24 20:15:00,
2013-04-24 12:20:00,45.8,39.7,30.10,North,0,0.0,-999.0,78,0.00,,,-99.99,,2013-04-24 20:20:00,
2013-04-24 12:25:00,46.0,39.4,30.10,North,0,0.0,-999.0,77,0.00,,,-99.99,,2013-04-24 20:25:00,
2013-04-24 12:30:00,46.7,40.0,30.10,North,0,0.0,-999.0,77,0.00,,,-99.99,,2013-04-24 20:30:00,
2013-04-24 12:35:00,47.1,40.1,30.10,North,0,0.0,-999.0,76,0.00,,,-99.99,,2013-04-24 20:35:00,
2013-04-24 12:40:00,47.1,40.7,30.10,North,0,0.0,-999.0,78,0.00,,,-99.99,,2013-04-24 20:40:00,
2013-04-24 12:45:00,47.5,40.8,30.10,North,0,0.0,-999.0,77,0.00,,,-99.99,,2013-04-24 20:45:00,
2013-04-24 12:50:00,47.7,40.6,30.10,North,0,0.0,-999.0,76,0.00,,,-99.99,,2013-04-24 20:50:00,
2013-04-24 12:55:00,48.7,42.2,30.10,North,0,0.0,-999.0,78,0.00,,,-99.99,,2013-04-24 20:55:00,
2013-04-24 13:00:00,49.7,42.9,30.07,North,0,0.0,-999.0,77,0.00,,,-99.99,,2013-04-24 21:00:00,
2013-04-24 13:05:00,50.3,42.8,30.07,North,0,0.0,-999.0,75,0.00,,,-99.99,,2013-04-24 21:05:00,
2013-04-24 13:10:00,50.3,41.5,30.07,North,0,0.0,-999.0,71,0.00,,,-99.99,,2013-04-24 21:10:00,
2013-04-24 13:15:00,47.8,40.1,30.07,North,0,0.0,-999.0,74,0.00,,,-99.99,,2013-04-24 21:15:00,
2013-04-24 13:20:00,48.5,41.9,30.07,North,0,0.0,-999.0,77,0.00,,,-99.99,,2013-04-24 21:20:00,
2013-04-24 13:25:00,48.4,41.7,30.07,North,0,0.0,-999.0,77,0.00,,,-99.99,,2013-04-24 21:25:00,
2013-04-24 13:30:00,48.2,41.1,30.07,North,0,0.0,-999.0,76,0.00,,,-99.99,,2013-04-24 21:30:00,
2013-04-24 13:35:00,47.7,41.5,30.07,North,0,0.0,-999.0,78,0.00,,,-99.99,,2013-04-24 21:35:00,
2013-04-24 13:40:00,48.7,41.5,30.07,North,0,0.0,-999.0,76,0.00,,,-99.99,,2013-04-24 21:40:00,
2013-04-24 13:45:00,49.7,42.5,30.07,North,0,0.0,-999.0,75,0.00,,,-99.99,,2013-04-24 21:45:00,
2013-04-24 13:50:00,49.5,41.3,30.07,North,0,0.0,-999.0,73,0.00,,,-99.99,,2013-04-24 21:50:00,
2013-04-24 13:55:00,49.3,42.0,30.07,North,0,0.0,-999.0,75,0.01,,,-99.99,,2013-04-24 21:55:00,
2013-04-24 14:00:00,50.2,42.2,30.05,North,0,0.0,-999.0,73,0.00,,,-99.99,,2013-04-24 22:00:00,
2013-04-24 14:05:00,51.3,42.9,30.05,North,0,0.0,-999.0,72,0.00,,,-99.99,,2013-04-24 22:05:00,
2013-04-24 14:10:00,50.0,41.4,30.05,North,0,0.0,-999.0,72,0.00,,,-99.99,,2013-04-24 22:10:00,
2013-04-24 14:15:00,49.0,41.6,30.05,North,0,0.0,-999.0,75,0.00,,,-99.99,,2013-04-24 22:15:00,
2013-04-24 14:20:00,49.0,41.8,30.05,North,0,0.0,-999.0,76,0.00,,,-99.99,,2013-04-24 22:20:00,
2013-04-24 14:25:00,50.5,42.3,30.05,North,0,0.0,-999.0,73,0.00,,,-99.99,,2013-04-24 22:25:00,
2013-04-24 14:30:00,48.6,41.1,30.05,North,0,0.0,-999.0,74,0.00,,,-99.99,,2013-04-24 22:30:00,
2013-04-24 14:35:00,47.5,40.1,30.05,North,0,0.0,-999.0,75,0.00,,,-99.99,,2013-04-24 22:35:00,
2013-04-24 14:40:00,47.3,41.0,30.05,North,0,0.0,-999.0,78,0.00,,,-99.99,,2013-04-24 22:40:00,
2013-04-24 14:45:00,48.4,41.6,30.05,North,0,0.0,-999.0,77,0.00,,,-99.99,,2013-04-24 22:45:00,
2013-04-24 14:50:00,48.4,40.8,30.05,North,0,0.0,-999.0,74,0.00,,,-99.99,,2013-04-24 22:50:00,
2013-04-24 14:55:00,48.9,40.6,30.05,North,0,0.0,-999.0,73,0.00,,,-99.99,,2013-04-24 22:55:00,
2013-04-24 15:00:00,50.4,41.1,30.02,North,0,0.0,-999.0,70,0.00,,,-99.99,,2013-04-24 23:00:00,
2013-04-24 15:05:00,50.0,40.6,30.02,North,0,0.0,-999.0,69,0.00,,,-99.99,,2013-04-24 23:05:00,
2013-04-24 15:10:00,47.7,39.8,30.02,North,0,0.0,-999.0,74,0.00,,,-99.99,,2013-04-24 23:10:00,
2013-04-24 15:15:00,46.9,39.7,30.02,North,0,0.0,-999.0,75,0.00,,,-99.99,,2013-04-24 23:15:00,
2013-04-24 15:21:00,47.4,40.0,30.02,North,0,0.0,-999.0,75,0.00,,,-99.99,,2013-04-24 23:21:00,
2013-04-24 15:26:00,47.5,40.5,30.02,North,0,0.0,-999.0,76,0.00,,,-99.99,,2013-04-24 23:26:00,
2013-04-24 15:31:00,49.3,41.1,30.02,North,0,0.0,-999.0,73,0.00,,,-99.99,,2013-04-24 23:31:00,
2013-04-24 15:36:00,49.5,40.8,30.02,North,0,0.0,-999.0,71,0.00,,,-99.99,,2013-04-24 23:36:00,
2013-04-24 15:41:00,48.6,40.5,30.02,North,0,0.0,-999.0,73,0.00,,,-99.99,,2013-04-24 23:41:00,
2013-04-24 15:46:00,47.4,40.4,30.02,North,0,0.0,-999.0,76,0.00,,,-99.99,,2013-04-24 23:46:00,
2013-04-24 15:51:00,47.1,40.1,30.02,North,0,0.0,-999.0,76,0.00,,,-99.99,,2013-04-24 23:51:00,
2013-04-24 15:56:00,46.5,40.2,30.02,North,0,0.0,-999.0,78,0.00,,,-99.99,,2013-04-24 23:56:00,
2013-04-24 16:01:00,47.3,41.0,29.97,North,0,0.0,-999.0,78,0.00,,,-99.99,,2013-04-25 00:01:00,
2013-04-24 16:06:00,47.3,40.7,29.97,North,0,0.0,-999.0,77,0.00,,,-99.99,,2013-04-25 00:06:00,
2013-04-24 16:11:00,47.7,40.4,29.97,North,0,0.0,-999.0,75,0.00,,,-99.99,,2013-04-25 00:11:00,
2013-04-24 16:16:00,47.1,40.7,29.97,North,0,0.0,-999.0,78,0.00,,,-99.99,,2013-04-25 00:16:00,
2013-04-24 16:21:00,46.2,39.0,29.97,North,0,0.0,-999.0,76,0.00,,,-99.99,,2013-04-25 00:21:00,
2013-04-24 16:26:00,45.9,39.8,29.97,North,0,0.0,-999.0,79,0.00,,,-99.99,,2013-04-25 00:26:00,
2013-04-24 16:31:00,46.6,39.9,29.97,North,0,0.0,-999.0,77,0.00,,,-99.99,,2013-04-25 00:31:00,
2013-04-24 16:36:00,47.1,40.8,29.97,North,0,0.0,-999.0,78,0.00,,,-99.99,,2013-04-25 00:36:00,
2013-04-24 16:41:00,48.2,40.3,29.97,North,0,0.0,-999.0,74,0.00,,,-99.99,,2013-04-25 00:41:00,
2013-04-24 16:46:00,47.7,40.5,29.97,North,0,0.0,-999.0,76,0.00,,,-99.99,,2013-04-25 00:46:00,
2013-04-24 16:51:00,45.8,39.3,29.97,North,0,0.0,-999.0,77,0.00,,,-99.99,,2013-04-25 00:51:00,
2013-04-24 16:56:00,46.3,40.0,29.97,North,0,0.0,-999.0,78,0.00,,,-99.99,,2013-04-25 00:56:00,
2013-04-24 17:01:00,47.5,40.9,29.96,North,0,0.0,-999.0,77,0.00,,,-99.99,,2013-04-25 01:01:00,
2013-04-24 17:06:00,49.1,40.7,29.96,North,0,0.0,-999.0,72,0.00,,,-99.99,,2013-04-25 01:06:00,
2013-04-24 17:11:00,47.9,40.9,29.96,North,0,0.0,-999.0,76,0.00,,,-99.99,,2013-04-25 01:11:00,
2013-04-24 17:16:00,47.8,40.2,29.96,North,0,0.0,-999.0,74,0.00,,,-99.99,,2013-04-25 01:16:00,
2013-04-24 17:21:00,48.5,41.4,29.96,North,0,0.0,-999.0,76,0.00,,,-99.99,,2013-04-25 01:21:00,
2013-04-24 17:26:00,49.3,42.5,29.96,North,0,0.0,-999.0,77,0.00,,,-99.99,,2013-04-25 01:26:00,
2013-04-24 17:31:00,48.5,42.5,29.96,North,0,0.0,-999.0,79,0.00,,,-99.99,,2013-04-25 01:31:00,
2013-04-24 17:36:00,48.9,42.5,29.96,North,0,0.0,-999.0,78,0.00,,,-99.99,,2013-04-25 01:36:00,
2013-04-24 17:41:00,49.7,42.9,29.96,North,0,0.0,-999.0,77,0.00,,,-99.99,,2013-04-25 01:41:00,
2013-04-24 17:46:00,50.2,41.5,29.96,North,0,0.0,-999.0,71,0.00,,,-99.99,,2013-04-25 01:46:00,
2013-04-24 17:51:00,51.1,42.4,29.96,North,0,0.0,-999.0,71,0.00,,,-99.99,,2013-04-25 01:51:00,
2013-04-24 17:56:00,50.3,42.0,29.96,North,0,0.0,-999.0,72,0.00,,,-99.99,,2013-04-25 01:56:00,
2013-04-24 18:01:00,50.3,41.9,29.91,North,0,0.0,-999.0,72,0.00,,,-99.99,,2013-04-25 02:01:00,
2013-04-24 18:06:00,51.2,42.3,29.91,North,0,0.0,-999.0,71,0.00,,,-99.99,,2013-04-25 02:06:00,
2013-04-24 18:11:00,50.6,42.6,29.91,North,0,0.0,-999.0,73,0.00,,,-99.99,,2013-04-25 02:11:00,
2013-04-24 18:16:00,50.1,42.3,29.91,North,0,0.0,-999.0,74,0.00,,,-99.99,,2013-04-25 02:16:00,
2013-04-24 18:21:00,50.5,42.3,29.91,North,0,0.0,-999.0,73,0.00,,,-99.99,,2013-04-25 02:21:00,
2013-04-24 18:26:00,50.2,42.0,29.91,North,0,0.0,-999.0,73,0.00,,,-99.99,,2013-04-25 02:26:00,
2013-04-24 18:31:00,49.8,41.6,29.91,North,0,0.0,-999.0,73,0.00,,,-99.99,,2013-04-25 02:31:00,
2013-04-24 18:36:00,49.7,41.3,29.91,North,0,0.0,-999.0,72,0.00,,,-99.99,,2013-04-25 02:36:00,
2013-04-24 18:41:00,48.9,41.4,29.91,North,0,0.0,-999.0,75,0.00,,,-99.99,,2013-04-25 02:41:00,
2013-04-24 18:46:00,48.9,41.6,29.91,North,0,0.0,-999.0,75,0.00,,,-99.99,,2013-04-25 02:46:00,
2013-04-24 18:51:00,49.2,42.3,29.91,North,0,0.0,-999.0,76,0.00,,,-99.99,,2013-04-25 02:51:00,
2013-04-24 18:56:00,50.3,41.1,29.91,North,0,0.0,-999.0,70,0.00,,,-99.99,,2013-04-25 02:56:00,
2013-04-24 19:01:00,49.9,42.2,29.88,North,0,0.0,-999.0,74,0.00,,,-99.99,,2013-04-25 03:01:00,
2013-04-24 19:06:00,48.1,41.8,29.88,North,0,0.0,-999.0,78,0.00,,,-99.99,,2013-04-25 03:06:00,
2013-04-24 19:11:00,47.3,41.0,29.88,North,0,0.0,-999.0,78,0.00,,,-99.99,,2013-04-25 03:11:00,
2013-04-24 19:16:00,47.3,41.3,29.88,North,0,0.0,-999.0,79,0.00,,,-99.99,,2013-04-25 03:16:00,
2013-04-24 19:21:00,47.0,41.3,29.88,North,0,0.0,-999.0,80,0.00,,,-99.99,,2013-04-25 03:21:00,
2013-04-24 19:27:00,46.8,40.9,29.88,North,0,0.0,-999.0,79,0.00,,,-99.99,,2013-04-25 03:27:00,
2013-04-24 19:32:00,46.7,40.6,29.88,North,0,0.0,-999.0,79,0.00,,,-99.99,,2013-04-25 03:32:00,
2013-04-24 19:37:00,46.4,40.5,29.88,North,0,0.0,-999.0,79,0.00,,,-99.99,,2013-04-25 03:37:00,
2013-04-24 19:42:00,46.6,40.6,29.88,North,0,0.0,-999.0,79,0.00,,,-99.99,,2013-04-25 03:42:00,
2013-04-24 19:47:00,46.4,40.3,29.88,North,0,0.0,-999.0,79,0.00,,,-99.99,,2013-04-25 03:47:00,
2013-04-24 19:52:00,46.8,39.7,29.88,North,0,0.0,-999.0,76,0.00,,,-99.99,,2013-04-25 03:52:00,
2013-04-24 19:57:00,47.1,40.7,29.88,North,0,0.0,-999.0,78,0.00,,,-99.99,,2013-04-25 03:57:00,
2013-04-24 20:01:00,46.9,40.8,29.85,North,0,0.0,-999.0,79,0.00,,,-99.99,,2013-04-25 04:01:00,
2013-04-24 20:02:00,46.7,40.8,29.85,North,0,0.0,-999.0,79,0.00,,,-99.99,,2013-04-25 04:02:00,
2013-04-24 20:05:00,46.6,40.9,29.85,North,0,0.0,-999.0,80,0.00,,,-99.99,,2013-04-25 04:05:00,
2013-04-24 20:06:00,46.6,40.9,29.85,North,0,0.0,-999.0,80,0.00,,,-99.99,,2013-04-25 04:06:00,
2013-04-24 20:11:00,46.7,40.9,29.85,North,0,0.0,-999.0,80,0.00,,,-99.99,,2013-04-25 04:11:00,
2013-04-24 20:13:00,46.8,40.9,29.85,North,0,0.0,-999.0,79,0.00,,,-99.99,,2013-04-25 04:13:00,
2013-04-24 20:18:00,46.6,40.8,29.85,North,0,0.0,-999.0,80,0.00,,,-99.99,,2013-04-25 04:18:00,
2013-04-24 20:23:00,47.4,41.3,29.85,North,0,0.0,-999.0,79,0.00,,,-99.99,,2013-04-25 04:23:00,
2013-04-24 20:28:00,46.2,40.9,29.85,North,0,0.0,-999.0,81,0.00,,,-99.99,,2013-04-25 04:28:00,
2013-04-24 20:33:00,45.9,41.1,29.85,North,0,0.0,-999.0,83,0.00,,,-99.99,,2013-04-25 04:33:00,
2013-04-24 20:38:00,45.6,41.0,29.85,North,0,0.0,-999.0,83,0.00,,,-99.99,,2013-04-25 04:38:00,
2013-04-24 20:43:00,45.4,40.9,29.85,North,0,0.0,-999.0,84,0.00,,,-99.99,,2013-04-25 04:43:00,
2013-04-24 20:48:00,45.8,40.6,29.85,North,0,0.0,-999.0,81,0.00,,,-99.99,,2013-04-25 04:48:00,
2013-04-24 20:53:00,45.9,40.3,29.85,North,0,0.0,-999.0,80,0.00,,,-99.99,,2013-04-25 04:53:00,
2013-04-24 20:58:00,46.1,40.8,29.85,North,0,0.0,-999.0,81,0.00,,,-99.99,,2013-04-25 04:58:00,
2013-04-24 21:03:00,46.1,40.7,29.83,North,0,0.0,-999.0,81,0.00,,,-99.99,,2013-04-25 05:03:00,
2013-04-24 21:08:00,45.8,40.3,29.83,North,0,0.0,-999.0,80,0.00,,,-99.99,,2013-04-25 05:08:00,
2013-04-24 21:13:00,45.0,40.1,29.83,North,0,0.0,-999.0,82,0.00,,,-99.99,,2013-04-25 05:13:00,
2013-04-24 21:18:00,45.4,40.7,29.83,North,0,0.0,-999.0,83,0.00,,,-99.99,,2013-04-25 05:18:00,
2013-04-24 21:23:00,44.4,39.8,29.83,North,0,0.0,-999.0,83,0.00,,,-99.99,,2013-04-25 05:23:00,
2013-04-24 21:28:00,44.0,40.0,29.83,North,0,0.0,-999.0,85,0.00,,,-99.99,,2013-04-25 05:28:00,
2013-04-24 21:33:00,44.0,40.0,29.83,North,0,0.0,-999.0,85,0.00,,,-99.99,,2013-04-25 05:33:00,
2013-04-24 21:38:00,44.0,39.5,29.83,North,0,0.0,-999.0,84,0.00,,,-99.99,,2013-04-25 05:38:00,
2013-04-24 21:43:00,44.3,39.5,29.83,North,0,0.0,-999.0,83,0.00,,,-99.99,,2013-04-25 05:43:00,
2013-04-24 21:48:00,44.4,39.7,29.83,North,0,0.0,-999.0,83,0.00,,,-99.99,,2013-04-25 05:48:00,
2013-04-24 21:53:00,44.5,39.2,29.83,North,0,0.0,-999.0,81,0.00,,,-99.99,,2013-04-25 05:53:00,
2013-04-24 21:58:00,44.1,39.2,29.83,North,0,0.0,-999.0,82,0.00,,,-99.99,,2013-04-25 05:58:00,
2013-04-24 22:03:00,43.7,39.3,29.80,North,0,0.0,-999.0,84,0.00,,,-99.99,,2013-04-25 06:03:00,
2013-04-24 22:08:00,43.1,39.2,29.80,North,0,0.0,-999.0,85,0.00,,,-99.99,,2013-04-25 06:08:00,
2013-04-24 22:13:00,42.8,39.2,29.80,North,0,0.0,-999.0,87,0.00,,,-99.99,,2013-04-25 06:13:00,
2013-04-24 22:18:00,43.0,39.5,29.80,North,0,0.0,-999.0,87,0.00,,,-99.99,,2013-04-25 06:18:00,
2013-04-24 22:23:00,43.1,39.2,29.80,North,0,0.0,-999.0,86,0.00,,,-99.99,,2013-04-25 06:23:00,
2013-04-24 22:28:00,42.9,39.1,29.80,North,0,0.0,-999.0,86,0.00,,,-99.99,,2013-04-25 06:28:00,
2013-04-24 22:33:00,42.6,38.8,29.80,North,0,0.0,-999.0,86,0.00,,,-99.99,,2013-04-25 06:33:00,
2013-04-24 22:38:00,42.9,39.2,29.80,North,0,0.0,-999.0,86,0.00,,,-99.99,,2013-04-25 06:38:00,
2013-04-24 22:43:00,42.8,39.2,29.80,North,0,0.0,-999.0,87,0.00,,,-99.99,,2013-04-25 06:43:00,
2013-04-24 22:48:00,42.7,38.8,29.80,North,0,0.0,-999.0,85,0.00,,,-99.99,,2013-04-25 06:48:00,
2013-04-24 22:53:00,43.4,39.0,29.80,North,0,0.0,-999.0,84,0.00,,,-99.99,,2013-04-25 06:53:00,
2013-04-24 22:58:00,44.8,38.4,29.80,North,0,0.0,-999.0,78,0.00,,,-99.99,,2013-04-25 06:58:00,
2013-04-24 23:03:00,44.8,38.3,29.77,North,0,0.0,-999.0,77,0.00,,,-99.99,,2013-04-25 07:03:00,
2013-04-24 23:08:00,44.6,36.9,29.77,North,0,0.0,-999.0,74,0.00,,,-99.99,,2013-04-25 07:08:00,
2013-04-24 23:13:00,45.3,37.4,29.77,North,0,0.0,-999.0,73,0.00,,,-99.99,,2013-04-25 07:13:00,
2013-04-24 23:18:00,45.4,37.6,29.77,North,0,0.0,-999.0,73,0.00,,,-99.99,,2013-04-25 07:18:00,
2013-04-24 23:23:00,45.5,37.4,29.77,North,0,0.0,-999.0,73,0.00,,,-99.99,,2013-04-25 07:23:00,
2013-04-24 23:28:00,45.3,36.9,29.77,North,0,0.0,-999.0,72,0.00,,,-99.99,,2013-04-25 07:28:00,
2013-04-24 23:33:00,45.1,37.5,29.77,North,0,0.0,-999.0,74,0.00,,,-99.99,,2013-04-25 07:33:00,
2013-04-24 23:38:00,45.1,37.6,29.77,North,0,0.0,-999.0,74,0.00,,,-99.99,,2013-04-25 07:38:00,
2013-04-24 23:43:00,45.7,37.0,29.77,North,0,0.0,-999.0,71,0.00,,,-99.99,,2013-04-25 07:43:00,
2013-04-24 23:48:00,45.4,36.0,29.77,North,0,0.0,-999.0,69,0.00,,,-99.99,,2013-04-25 07:48:00,
2013-04-24 23:53:00,45.4,35.5,29.77,North,0,0.0,-999.0,67,0.00,,,-99.99,,2013-04-25 07:53:00,
2013-04-24 23:58:00,45.9,34.8,29.77,North,0,0.0,-999.0,64,0.00,,,-99.99,,2013-04-25 07:58:00,